Time;durP1;ratioP1;P1;durP2;ratioP2;P2;SDS_P1;SDS_P2;PMS_P1;PMS_P2;Temp;Humidity;BMP_temperature;BMP_pressure;BME280_temperature;BME280_humidity;BME280_pressure;Samples;Min_cycle;Max_cycle;Signal;HPM_P1;HPM_P2
2022/06/07 00:02:24;;;;;;;9.27;6.00;;;;;;;16.56;100.00;62575.38;5091578;28;20231;-75
2022/06/07 00:04:52;;;;;;;9.00;5.97;;;;;;;16.95;100.00;62612.25;5091849;28;20195;-74
2022/06/07 00:07:20;;;;;;;9.07;6.17;;;;;;;16.90;100.00;62606.88;5091791;28;20306;-73
2022/06/07 00:09:49;;;;;;;7.90;5.90;;;;;;;16.86;100.00;62602.56;5091491;28;20265;-75
2022/06/07 00:12:17;;;;;;;8.63;6.30;;;;;;;16.42;100.00;62560.28;5091949;28;20195;-74
2022/06/07 00:14:44;;;;;;;9.27;6.40;;;;;;;16.85;100.00;62599.47;5091484;28;20203;-73
2022/06/07 00:17:12;;;;;;;9.60;6.50;;;;;;;16.86;100.00;62602.56;5091265;28;20203;-73
2022/06/07 00:19:39;;;;;;;10.03;6.40;;;;;;;16.88;100.00;62604.72;5091427;28;20203;-76
2022/06/07 00:22:07;;;;;;;8.87;6.70;;;;;;;16.95;100.00;62611.72;5091104;28;20284;-75
2022/06/07 00:24:35;;;;;;;11.63;7.30;;;;;;;16.90;100.00;62609.47;5091528;28;20291;-74
2022/06/07 00:27:05;;;;;;;11.23;6.97;;;;;;;16.96;100.00;62612.81;5091471;28;20206;-74
2022/06/07 00:29:34;;;;;;;9.77;6.60;;;;;;;16.82;100.00;62598.25;5091564;28;20284;-74
2022/06/07 00:32:01;;;;;;;10.83;6.93;;;;;;;16.87;100.00;62603.66;5091315;28;20218;-75
2022/06/07 00:34:28;;;;;;;10.33;7.07;;;;;;;16.72;100.00;62587.50;5091219;28;20231;-74
2022/06/07 00:36:55;;;;;;;12.53;7.03;;;;;;;16.73;100.00;62594.25;5091507;28;20199;-75
2022/06/07 00:39:22;;;;;;;7.43;6.60;;;;;;;16.94;100.00;62611.19;5091361;28;20623;-75
2022/06/07 00:41:49;;;;;;;13.17;7.00;;;;;;;17.06;100.00;62624.13;5091006;28;20227;-75
2022/06/07 00:44:31;;;;;;;9.23;6.70;;;;;;;17.19;100.00;62643.28;5091521;28;20195;-75
2022/06/07 00:47:01;;;;;;;8.90;6.23;;;;;;;16.86;100.00;62607.72;5091233;28;20599;-74
2022/06/07 00:49:34;;;;;;;9.07;5.77;;;;;;;17.05;100.00;62625.63;5091671;28;20199;-74
2022/06/07 00:52:01;;;;;;;8.70;6.00;;;;;;;16.95;100.00;62611.72;5091100;28;20211;-75
2022/06/07 00:54:30;;;;;;;7.23;5.77;;;;;;;16.49;100.00;62563.22;5091441;28;20211;-74
2022/06/07 00:56:58;;;;;;;13.20;6.40;;;;;;;16.89;100.00;62603.22;5090972;28;20195;-74
2022/06/07 00:59:26;;;;;;;10.07;6.57;;;;;;;16.88;100.00;62607.31;5093388;28;20645;-74
2022/06/07 01:01:53;;;;;;;10.10;6.80;;;;;;;16.80;100.00;62598.69;5094080;28;20289;-74
2022/06/07 01:04:23;;;;;;;11.83;6.33;;;;;;;16.70;100.00;62587.91;5094440;28;20354;-74
2022/06/07 01:12:20;;;;;;;13.30;7.10;;;;;;;16.53;100.00;62561.84;5092632;28;20269;-75
2022/06/07 01:14:48;;;;;;;9.97;8.80;;;;;;;16.50;100.00;62569.44;5094373;28;20282;-73
2022/06/07 01:17:16;;;;;;;15.37;8.70;;;;;;;16.19;100.00;62530.91;5094712;28;20195;-75
2022/06/07 01:19:43;;;;;;;13.37;7.27;;;;;;;16.12;100.00;62525.41;5094324;28;20212;-75
2022/06/07 01:22:11;;;;;;;13.37;7.20;;;;;;;16.55;100.00;62569.16;5094507;28;20239;-76
2022/06/07 01:24:39;;;;;;;13.07;7.10;;;;;;;16.14;100.00;62530.13;5094278;28;20199;-75
2022/06/07 01:27:08;;;;;;;7.83;6.57;;;;;;;16.52;100.00;62566.47;5094827;28;20206;-75
2022/06/07 01:29:36;;;;;;;7.87;6.87;;;;;;;16.55;100.00;62571.72;5094272;28;20644;-75
2022/06/07 01:32:04;;;;;;;9.50;7.03;;;;;;;16.53;100.00;62567.53;5094435;28;20264;-75
2022/06/07 01:34:33;;;;;;;20.37;7.20;;;;;;;16.54;100.00;62570.66;5094130;28;20228;-74
2022/06/07 01:37:01;;;;;;;11.40;6.03;;;;;;;16.35;100.00;62545.56;5094168;28;20252;-74
2022/06/07 01:42:15;;;;;;;9.90;5.37;;;;;;;16.64;100.00;62578.88;5094284;28;20356;-73
2022/06/07 01:44:46;;;;;;;6.60;6.00;;;;;;;16.37;100.00;62549.75;5093855;28;20199;-73
2022/06/07 01:47:18;;;;;;;7.03;6.33;;;;;;;16.40;100.00;62555.56;5094180;28;20192;-75
2022/06/07 01:49:45;;;;;;;12.50;7.17;;;;;;;16.51;100.00;62565.38;5093986;28;20200;-75
2022/06/07 01:52:14;;;;;;;9.50;6.60;;;;;;;16.67;100.00;62580.06;5094222;28;20211;-74
2022/06/07 01:54:42;;;;;;;11.37;6.50;;;;;;;16.60;100.00;62575.06;5094191;28;20273;-74
2022/06/07 01:57:11;;;;;;;7.87;6.70;;;;;;;16.61;100.00;62576.16;5094128;28;20211;-73
2022/06/07 01:59:38;;;;;;;11.70;7.63;;;;;;;16.57;100.00;62568.75;5093860;28;20731;-74
2022/06/07 02:02:06;;;;;;;10.43;6.80;;;;;;;16.54;100.00;62570.66;5093784;28;20227;-73
2022/06/07 02:04:36;;;;;;;12.83;6.43;;;;;;;16.65;100.00;62582.50;5093881;28;20199;-73
2022/06/07 02:07:04;;;;;;;12.87;7.13;;;;;;;16.67;100.00;62582.63;5094353;28;20196;-75
2022/06/07 02:09:31;;;;;;;7.87;6.70;;;;;;;16.77;100.00;62593.41;5093728;28;20207;-73
2022/06/07 02:12:00;;;;;;;7.63;6.83;;;;;;;16.81;100.00;62597.19;5093501;28;20351;-74
2022/06/07 02:14:28;;;;;;;8.37;6.67;;;;;;;16.72;100.00;62587.50;5093541;28;20203;-75
2022/06/07 02:16:57;;;;;;;11.07;6.87;;;;;;;16.47;100.00;62563.63;5093245;28;20199;-74
2022/06/07 02:19:25;;;;;;;8.90;6.73;;;;;;;16.73;100.00;62585.97;5093749;28;20203;-73
2022/06/07 02:21:52;;;;;;;11.13;6.93;;;;;;;16.74;100.00;62584.50;5093133;28;20223;-75
2022/06/07 02:24:21;;;;;;;12.97;6.43;;;;;;;16.67;100.00;62579.50;5075325;28;20648;-75
2022/06/07 02:26:51;;;;;;;12.57;6.83;;;;;;;16.67;100.00;62582.63;5094249;28;20199;-74
2022/06/07 02:29:25;;;;;;;14.87;5.40;;;;;;;16.75;100.00;62585.56;5095800;28;20195;-72
2022/06/07 02:31:57;;;;;;;10.37;5.80;;;;;;;15.65;100.00;62472.75;5094494;28;20738;-74
2022/06/07 02:34:26;;;;;;;7.20;5.13;;;;;;;16.60;100.00;62575.06;5093106;28;20265;-75
2022/06/07 02:36:56;;;;;;;5.97;5.03;;;;;;;16.40;100.00;62555.56;5093417;28;20203;-75
2022/06/07 02:39:25;;;;;;;9.60;4.93;;;;;;;16.22;100.00;62534.13;5093020;28;20211;-75
2022/06/07 02:41:54;;;;;;;11.47;6.03;;;;;;;16.24;100.00;62533.69;5092944;28;20318;-74
2022/06/07 02:44:22;;;;;;;7.07;5.37;;;;;;;16.43;100.00;62553.63;5092975;28;20206;-74
2022/06/07 02:46:50;;;;;;;9.43;5.60;;;;;;;16.03;100.00;62521.38;5092969;28;20260;-74
2022/06/07 02:49:18;;;;;;;7.57;4.93;;;;;;;16.52;100.00;62563.88;5092715;28;20223;-75
2022/06/07 02:51:45;;;;;;;7.33;5.07;;;;;;;16.56;100.00;62572.81;5092492;28;20204;-75
2022/06/07 02:54:12;;;;;;;6.13;4.90;;;;;;;16.08;100.00;62518.50;5092739;28;20589;-74
2022/06/07 02:56:39;;;;;;;7.93;5.47;;;;;;;16.02;100.00;62515.69;5092513;28;20245;-74
2022/06/07 02:59:06;;;;;;;12.27;5.13;;;;;;;16.62;100.00;62579.28;5093265;28;20199;-75
2022/06/07 03:01:35;;;;;;;7.93;4.83;;;;;;;16.53;100.00;62567.53;5094507;28;20235;-72
2022/06/07 03:04:01;;;;;;;9.03;5.80;;;;;;;16.49;100.00;62562.69;5094773;28;20292;-74
2022/06/07 03:06:28;;;;;;;11.90;5.97;;;;;;;16.61;100.00;62570.47;5092673;28;20199;-74
2022/06/07 03:08:55;;;;;;;7.30;5.63;;;;;;;16.61;100.00;62578.19;5092499;28;20272;-74
2022/06/07 03:11:22;;;;;;;8.17;5.63;;;;;;;16.47;100.00;62555.38;5092286;28;20208;-73
2022/06/07 03:13:50;;;;;;;14.83;5.37;;;;;;;16.55;100.00;62567.13;5092545;28;20264;-74
2022/06/07 03:16:17;;;;;;;11.27;6.27;;;;;;;16.54;100.00;62571.19;5092125;28;20658;-75
2022/06/07 03:18:48;;;;;;;11.53;5.70;;;;;;;16.53;100.00;62570.13;5092049;28;20200;-75
2022/06/07 03:21:15;;;;;;;6.87;4.53;;;;;;;16.60;100.00;62575.06;5092177;28;20223;-74
2022/06/07 03:23:42;;;;;;;9.30;4.53;;;;;;;16.63;100.00;62577.78;5092277;28;20216;-75
2022/06/07 03:26:12;;;;;;;7.63;4.27;;;;;;;15.91;100.00;62501.28;5078365;28;20203;-72
2022/06/07 03:28:39;;;;;;;6.70;4.00;;;;;;;16.35;100.00;62547.59;5092288;28;20253;-75
2022/06/07 03:31:09;;;;;;;4.97;3.90;;;;;;;16.37;100.00;62544.59;5091842;28;20200;-75
2022/06/07 03:33:36;;;;;;;5.07;4.00;;;;;;;15.68;100.00;62473.94;5091876;28;20646;-75
2022/06/07 03:36:11;;;;;;;6.30;4.50;;;;;;;16.37;100.00;62547.16;5092248;28;20235;-74
2022/06/07 03:38:38;;;;;;;7.43;3.97;;;;;;;15.72;100.00;62485.94;5092539;28;20580;-74
2022/06/07 03:41:05;;;;;;;9.47;4.40;;;;;;;15.75;100.00;62486.63;5091637;28;20227;-75
2022/06/07 03:43:32;;;;;;;6.77;4.13;;;;;;;16.30;100.00;62542.22;5092027;28;20215;-72
2022/06/07 03:46:08;;;;;;;7.33;4.00;;;;;;;16.28;100.00;62540.06;5091596;28;20278;-74
2022/06/07 03:48:35;;;;;;;9.33;4.90;;;;;;;15.76;100.00;62487.16;5092180;28;20594;-77
2022/06/07 03:51:03;;;;;;;9.23;4.80;;;;;;;16.12;100.00;62525.41;5091318;28;20210;-74
2022/06/07 03:53:32;;;;;;;6.27;5.07;;;;;;;16.18;100.00;62534.94;5091821;28;20203;-74
2022/06/07 03:56:00;;;;;;;6.73;4.90;;;;;;;16.21;100.00;62527.38;5091704;28;20238;-74
2022/06/07 03:58:27;;;;;;;10.50;4.97;;;;;;;16.30;100.00;62542.22;5091569;28;20204;-76
2022/06/07 04:00:57;;;;;;;10.57;5.60;;;;;;;16.29;100.00;62541.13;5091393;28;20200;-73
2022/06/07 04:03:24;;;;;;;19.07;6.33;;;;;;;16.45;100.00;62555.78;5091677;28;20318;-75
2022/06/07 04:05:52;;;;;;;10.20;5.50;;;;;;;16.61;100.00;62576.16;5091218;28;20196;-75
2022/06/07 04:08:20;;;;;;;7.97;4.93;;;;;;;16.73;100.00;62588.56;5073545;28;20660;-74
2022/06/07 04:10:51;;;;;;;13.00;6.20;;;;;;;16.73;100.00;62593.69;5073361;28;20199;-73
2022/06/07 04:13:19;;;;;;;13.73;5.97;;;;;;;16.66;100.00;62581.53;5091594;28;20594;-74
2022/06/07 04:15:47;;;;;;;14.17;6.23;;;;;;;16.47;100.00;62555.38;5091331;28;20285;-75
2022/06/07 04:18:14;;;;;;;8.23;6.57;;;;;;;17.00;100.00;62615.09;5091776;28;20200;-74
2022/06/07 04:20:42;;;;;;;11.40;5.80;;;;;;;17.07;100.00;62625.19;5091590;28;20229;-74
2022/06/07 04:23:15;;;;;;;13.47;5.00;;;;;;;17.08;100.00;62621.13;5091437;28;20228;-74
2022/06/07 04:25:42;;;;;;;6.00;5.23;;;;;;;17.24;100.00;62643.53;5091351;28;20207;-73
2022/06/07 04:28:12;;;;;;;9.80;5.43;;;;;;;17.49;100.00;62669.97;5091591;28;20561;-76
2022/06/07 04:30:42;;;;;;;9.43;5.53;;;;;;;17.63;100.00;62688.19;5077620;28;20681;-75
2022/06/07 04:33:09;;;;;;;13.93;5.93;;;;;;;17.64;100.00;62684.13;5091480;28;20223;-74
2022/06/07 04:35:36;;;;;;;14.10;5.57;;;;;;;17.77;100.00;62699.66;5095094;28;20223;-73
2022/06/07 04:38:03;;;;;;;11.37;6.43;;;;;;;17.89;100.00;62712.59;5095345;28;20214;-73
2022/06/07 04:40:30;;;;;;;8.90;5.97;;;;;;;18.02;100.00;62724.03;5095059;28;20199;-73
2022/06/07 04:42:57;;;;;;;10.97;6.07;;;;;;;18.02;100.00;62724.03;5095165;28;20227;-76
2022/06/07 04:45:25;;;;;;;11.90;6.03;;;;;;;18.44;100.00;62766.78;5095242;28;20280;-74
2022/06/07 04:47:51;;;;;;;10.53;5.43;;;;;;;17.83;100.00;62708.69;5095270;28;20207;-73
2022/06/07 04:50:20;;;;;;;12.77;6.37;;;;;;;18.52;100.00;62780.59;5080818;28;20564;-73
2022/06/07 04:52:47;;;;;;;11.83;6.00;;;;;;;18.90;100.00;62821.06;5094802;28;20289;-73
2022/06/07 04:55:15;;;;;;;6.53;5.20;;;;;;;19.08;100.00;62840.53;5095162;28;20223;-75
2022/06/07 04:57:42;;;;;;;9.43;5.87;;;;;;;19.42;100.00;62871.56;5093149;28;20195;-73
2022/06/07 05:00:14;;;;;;;7.93;5.60;;;;;;;19.54;100.00;62882.47;5083195;28;20199;-74
2022/06/07 05:02:44;;;;;;;9.20;6.20;;;;;;;19.75;100.00;62912.94;5095030;28;20219;-73
2022/06/07 05:05:12;;;;;;;10.17;7.87;;;;;;;19.65;100.00;62906.75;5094852;28;20195;-74
2022/06/07 05:07:39;;;;;;;13.67;9.17;;;;;;;19.94;100.00;62930.34;5094964;28;20202;-75
2022/06/07 05:10:08;;;;;;;14.07;10.50;;;;;;;20.02;100.00;62941.59;5094573;28;20675;-76
2022/06/07 05:12:35;;;;;;;17.13;9.97;;;;;;;20.12;100.00;62947.22;5094813;28;20207;-73
2022/06/07 05:15:02;;;;;;;13.87;9.83;;;;;;;20.24;100.00;62960.22;5094423;28;20574;-75
2022/06/07 05:17:29;;;;;;;15.47;9.17;;;;;;;20.24;100.00;62962.25;5094676;28;20203;-75
2022/06/07 05:19:58;;;;;;;10.50;8.23;;;;;;;20.14;100.00;62954.56;5094337;28;20579;-74
2022/06/07 05:22:27;;;;;;;13.03;8.37;;;;;;;20.20;100.00;62961.06;5094619;28;20238;-75
2022/06/07 05:24:55;;;;;;;10.73;8.60;;;;;;;19.89;100.00;62924.94;5095280;28;20307;-74
2022/06/07 05:27:24;;;;;;;12.87;8.33;;;;;;;20.38;100.00;62980.53;5094690;28;20672;-75
2022/06/07 05:29:54;;;;;;;10.27;7.17;;;;;;;20.29;100.00;62968.19;5094590;28;20200;-76
2022/06/07 05:32:21;;;;;;;10.27;7.37;;;;;;;20.24;100.00;62962.81;5094141;28;20203;-76
2022/06/07 05:34:49;;;;;;;11.37;7.57;;;;;;;19.79;100.00;62914.13;5094425;28;20227;-76
2022/06/07 05:37:21;;;;;;;10.70;7.80;;;;;;;20.43;100.00;62983.34;5094359;28;20599;-75
2022/06/07 05:39:50;;;;;;;14.60;8.10;;;;;;;20.21;100.00;62962.13;5094577;28;20206;-74
2022/06/07 05:42:18;;;;;;;12.67;8.40;;;;;;;20.35;100.00;62974.13;5093812;28;20230;-74
2022/06/07 05:44:45;;;;;;;12.60;8.53;;;;;;;20.13;100.00;62954.00;5093593;28;20674;-73
2022/06/07 05:47:12;;;;;;;12.47;8.40;;;;;;;20.22;100.00;62960.66;5075690;28;20214;-74
2022/06/07 05:49:39;;;;;;;12.20;9.37;;;;;;;19.75;100.00;62904.63;5093927;28;20207;-73
2022/06/07 05:52:07;;;;;;;16.63;9.10;;;;;;;20.45;100.00;62982.38;5093825;28;20562;-74
2022/06/07 05:54:38;;;;;;;15.00;10.27;;;;;;;20.24;100.00;62962.81;5093963;28;20290;-74
2022/06/07 05:57:05;;;;;;;19.67;11.17;;;;;;;20.53;100.00;62996.75;5093968;28;20210;-74
2022/06/07 05:59:34;;;;;;;17.13;13.40;;;;;;;20.15;100.00;62950.47;5093314;28;20200;-75
2022/06/07 06:02:01;;;;;;;19.33;14.63;;;;;;;20.38;100.00;62983.13;5093728;28;20199;-73
2022/06/07 06:04:31;;;;;;;27.23;19.00;;;;;;;20.64;100.00;63005.50;5093451;28;20580;-74
2022/06/07 06:06:58;;;;;;;26.00;16.63;;;;;;;20.78;100.00;63018.63;5093766;28;20237;-74
2022/06/07 06:12:12;;;;;;;23.63;15.00;;;;;;;21.14;100.00;63061.66;5094068;28;20211;-73
2022/06/07 06:14:40;;;;;;;19.37;14.30;;;;;;;21.32;100.00;63079.09;5093057;28;20200;-74
2022/06/07 06:17:08;;;;;;;18.33;12.90;;;;;;;21.27;100.00;63073.16;5093380;28;20200;-73
2022/06/07 06:19:35;;;;;;;23.03;15.53;;;;;;;21.41;100.00;63090.91;5093180;28;20710;-75
2022/06/07 06:22:03;;;;;;;16.97;13.20;;;;;;;21.63;100.00;63110.06;5093040;28;20204;-74
2022/06/07 06:24:30;;;;;;;14.53;11.50;;;;;;;21.71;100.00;63123.38;5093232;28;20207;-74
2022/06/07 06:26:58;;;;;;;16.33;11.67;;;;;;;22.13;100.00;63168.88;5093628;28;20256;-74
2022/06/07 06:29:26;;;;;;;17.07;12.13;;;;;;;22.11;100.00;63166.16;5093520;28;20276;-75
2022/06/07 06:31:54;;;;;;;16.20;10.67;;;;;;;21.86;100.00;63134.44;5093173;28;20635;-75
2022/06/07 06:34:23;;;;;;;15.27;10.67;;;;;;;22.12;100.00;63167.25;5093084;28;20241;-74
2022/06/07 06:36:50;;;;;;;14.63;10.40;;;;;;;22.05;100.00;63160.22;5093134;28;20195;-74
2022/06/07 06:39:17;;;;;;;12.93;9.90;;;;;;;21.89;100.00;63140.28;5094559;28;20671;-74
2022/06/07 06:41:46;;;;;;;22.67;9.50;;;;;;;21.78;100.00;63128.34;5097500;28;20650;-73
2022/06/07 06:44:13;;;;;;;16.03;10.40;;;;;;;21.96;100.00;63150.47;5093019;28;20234;-74
2022/06/07 06:46:43;;;;;;;17.57;9.53;;;;;;;22.16;100.00;63172.13;5093077;28;20238;-74
2022/06/07 06:49:12;;;;;;;10.97;9.73;;;;;;;22.18;100.00;63174.28;5092609;28;20225;-74
2022/06/07 06:51:41;;;;;;;13.47;9.37;;;;;;;22.75;100.00;63232.38;5092374;28;20199;-74
2022/06/07 06:54:11;;;;;;;16.37;9.63;;;;;;;22.78;100.00;63238.25;5092546;28;20202;-73
2022/06/07 06:56:38;;;;;;;18.47;8.90;;;;;;;23.07;100.00;63265.00;5091892;28;20258;-74
2022/06/07 06:59:06;;;;;;;13.90;8.67;;;;;;;22.99;100.00;63261.00;5092737;28;20204;-75
2022/06/07 07:01:35;;;;;;;13.80;9.00;;;;;;;22.82;100.00;63239.97;5092574;28;20591;-73
2022/06/07 07:04:06;;;;;;;14.33;8.97;;;;;;;23.07;100.00;63267.06;5092248;28;20305;-73
2022/06/07 07:06:34;;;;;;;14.43;9.20;;;;;;;23.19;100.00;63282.66;5092237;28;20261;-73
2022/06/07 07:09:02;;;;;;;14.07;9.23;;;;;;;22.89;100.00;63250.16;5092298;28;20645;-74
2022/06/07 07:11:31;;;;;;;12.53;10.03;;;;;;;23.12;100.00;63272.50;5092200;28;20203;-74
2022/06/07 07:13:59;;;;;;;17.80;9.97;;;;;;;22.34;100.00;63185.88;5092327;28;20294;-74
2022/06/07 07:16:29;;;;;;;14.10;8.97;;;;;;;22.38;100.00;63193.34;5077304;28;20262;-75
2022/06/07 07:18:58;;;;;;;18.20;8.57;;;;;;;23.30;100.00;63289.94;5085274;28;20235;-73
2022/06/07 07:21:33;;;;;;;10.77;8.40;;;;;;;23.80;100.00;63348.84;5092251;28;20700;-73
2022/06/07 07:24:00;;;;;;;14.23;8.27;;;;;;;23.85;100.00;63349.06;5092077;28;20243;-73
2022/06/07 07:26:29;;;;;;;11.10;8.53;;;;;;;24.11;100.00;63382.50;5092972;28;20206;-73
2022/06/07 07:28:57;;;;;;;17.00;8.40;;;;;;;24.11;100.00;63377.28;5091955;28;20598;-73
2022/06/07 07:31:25;;;;;;;17.27;9.17;;;;;;;24.03;100.00;63373.81;5092257;28;20725;-74
2022/06/07 07:33:53;;;;;;;12.67;8.53;;;;;;;23.72;100.00;63340.19;5091668;28;20294;-73
2022/06/07 07:36:21;;;;;;;10.47;8.37;;;;;;;23.95;100.00;63364.56;5092052;28;20718;-74
2022/06/07 07:38:49;;;;;;;11.43;8.33;;;;;;;24.22;100.00;63394.44;5092185;28;20260;-75
2022/06/07 07:41:20;;;;;;;14.10;7.70;;;;;;;24.52;100.00;63421.25;5091897;28;20220;-74
2022/06/07 07:43:47;;;;;;;12.27;7.50;;;;;;;24.95;100.00;63475.22;5091935;28;20227;-73
2022/06/07 07:46:15;;;;;;;12.50;7.80;;;;;;;24.72;100.00;63445.56;5091853;28;20195;-72
2022/06/07 07:48:42;;;;;;;11.20;6.70;;;;;;;24.78;100.00;63454.16;5091837;28;20590;-74
2022/06/07 07:51:14;;;;;;;14.80;7.20;;;;;;;24.92;100.00;63466.75;5091545;28;20664;-73
2022/06/07 07:53:42;;;;;;;15.57;7.10;;;;;;;25.04;100.00;63479.78;5091650;28;20296;-73
2022/06/07 07:56:11;;;;;;;16.00;6.53;;;;;;;25.43;100.00;63522.16;5091327;28;20196;-76
2022/06/07 07:58:37;;;;;;;17.40;7.10;;;;;;;25.52;100.00;63534.53;5091449;28;20214;-74
2022/06/07 08:01:09;;;;;;;13.43;7.23;;;;;;;25.18;100.00;63497.56;5091482;28;20732;-75
2022/06/07 08:03:39;;;;;;;6.83;5.90;;;;;;;25.19;100.00;63495.50;5091823;28;20290;-73
2022/06/07 08:06:07;;;;;;;6.67;6.00;;;;;;;25.59;100.00;63536.94;5091346;28;20891;-71
2022/06/07 08:08:34;;;;;;;13.97;5.67;;;;;;;25.56;100.00;63536.25;5091255;28;20204;-74
2022/06/07 08:11:02;;;;;;;9.53;5.37;;;;;;;25.90;100.00;63570.59;5091288;28;20230;-73
2022/06/07 08:13:31;;;;;;;6.63;4.90;;;;;;;26.41;100.00;63625.50;5091135;28;20632;-74
2022/06/07 08:15:58;;;;;;;9.03;4.90;;;;;;;26.44;100.00;63628.22;5091393;28;20203;-74
2022/06/07 08:18:26;;;;;;;10.50;5.90;;;;;;;26.13;100.00;63600.28;5091331;28;20205;-74
2022/06/07 08:20:58;;;;;;;10.43;4.60;;;;;;;25.68;100.00;63541.47;5090121;28;20199;-74
2022/06/07 08:23:25;;;;;;;5.13;4.63;;;;;;;25.79;100.00;63563.31;5091334;28;20292;-73
2022/06/07 08:25:53;;;;;;;8.27;4.97;;;;;;;26.08;100.00;63594.31;5090598;28;20206;-75
2022/06/07 08:28:20;;;;;;;20.17;5.53;;;;;;;26.28;100.00;63616.06;5091411;28;20229;-74
2022/06/07 08:30:50;;;;;;;22.00;5.23;;;;;;;26.31;100.00;63619.84;5091057;28;20289;-74
2022/06/07 08:38:52;;;;;;;7.87;4.47;;;;;;;26.28;100.00;63616.59;5091351;28;20234;-73
2022/06/07 08:41:23;;;;;;;5.33;4.33;;;;;;;26.51;100.00;63641.06;5090827;28;20223;-73
2022/06/07 08:43:50;;;;;;;5.97;4.17;;;;;;;26.29;100.00;63617.13;5091100;28;20586;-75
2022/06/07 08:46:24;;;;;;;4.40;3.63;;;;;;;27.13;100.00;63702.72;5090917;28;20626;-74
2022/06/07 08:48:52;;;;;;;6.87;4.23;;;;;;;26.73;100.00;63660.31;5091309;28;20204;-74
2022/06/07 08:51:24;;;;;;;6.43;3.50;;;;;;;26.66;100.00;63657.91;5091160;28;20290;-73
2022/06/07 08:53:54;;;;;;;10.53;4.70;;;;;;;26.29;100.00;63617.13;5091419;28;20214;-76
2022/06/07 08:56:26;;;;;;;10.87;4.43;;;;;;;26.49;100.00;63638.88;5091344;28;20210;-73
2022/06/07 08:58:55;;;;;;;6.43;3.00;;;;;;;26.68;100.00;63659.56;5090988;28;20363;-73
2022/06/07 09:01:32;;;;;;;3.37;2.90;;;;;;;26.61;100.00;63657.69;5090907;28;20199;-74
2022/06/07 09:04:10;;;;;;;8.10;3.07;;;;;;;27.05;100.00;63701.88;5091061;28;20578;-73
2022/06/07 09:06:44;;;;;;;7.37;3.30;;;;;;;27.21;100.00;63717.19;5091095;28;20215;-73
2022/06/07 09:09:11;;;;;;;11.13;3.77;;;;;;;26.85;100.00;63677.50;5090855;28;20581;-74
2022/06/07 09:14:31;;;;;;;4.50;3.73;;;;;;;27.23;100.00;63716.75;5090958;28;20199;-74
2022/06/07 09:17:02;;;;;;;3.87;3.37;;;;;;;27.26;100.00;63722.09;5090818;28;20196;-75
2022/06/07 09:19:32;;;;;;;7.43;2.87;;;;;;;27.26;100.00;63722.66;5090647;28;20204;-74
2022/06/07 09:22:03;;;;;;;4.17;3.17;;;;;;;27.16;100.00;63709.16;5094715;28;20302;-74
2022/06/07 09:24:38;;;;;;;4.17;3.17;;;;;;;27.27;100.00;63717.94;5094257;28;20231;-74
2022/06/07 09:27:15;;;;;;;5.47;3.40;;;;;;;27.49;100.00;63745.06;5094984;28;20643;-72
2022/06/07 09:29:50;;;;;;;3.60;3.30;;;;;;;27.03;100.00;63697.63;5094125;28;20199;-74
2022/06/07 09:32:28;;;;;;;4.20;3.00;;;;;;;27.41;100.00;63741.06;5093993;28;20604;-73
2022/06/07 09:35:00;;;;;;;3.23;2.90;;;;;;;27.87;100.00;63783.25;5093866;28;20226;-74
2022/06/07 09:37:33;;;;;;;3.90;3.30;;;;;;;27.94;100.00;63790.34;5094288;28;20241;-74
2022/06/07 09:40:20;;;;;;;9.40;3.90;;;;;;;26.80;100.00;63672.63;5094332;28;20207;-73
2022/06/07 09:42:52;;;;;;;8.33;3.60;;;;;;;26.45;100.00;63632.47;5094045;28;20330;-74
2022/06/07 09:45:29;;;;;;;6.40;3.33;;;;;;;27.01;100.00;63689.66;5093996;28;20681;-74
2022/06/07 09:47:58;;;;;;;7.83;4.30;;;;;;;27.34;100.00;63731.38;5094038;28;20235;-73
2022/06/07 09:50:34;;;;;;;4.30;3.90;;;;;;;27.60;100.00;63759.13;5093826;28;20215;-75
2022/06/07 09:53:09;;;;;;;16.00;5.03;;;;;;;27.81;100.00;63778.81;5093541;28;20199;-73
2022/06/07 09:55:43;;;;;;;4.73;3.97;;;;;;;27.66;100.00;63759.88;5093756;28;20206;-73
2022/06/07 09:58:31;;;;;;;8.40;4.00;;;;;;;27.64;100.00;63762.94;5093524;28;20206;-73
2022/06/07 10:01:05;;;;;;;5.30;3.43;;;;;;;26.98;100.00;63689.56;5093392;28;20269;-75
2022/06/07 10:03:40;;;;;;;7.23;3.80;;;;;;;27.43;100.00;63735.38;5093570;28;20219;-74
2022/06/07 10:06:26;;;;;;;5.80;4.00;;;;;;;27.47;100.00;63745.50;5093669;28;20207;-74
2022/06/07 10:09:15;;;;;;;8.23;3.90;;;;;;;27.45;100.00;63740.72;5081777;28;20203;-74
2022/06/07 10:11:55;;;;;;;7.20;4.13;;;;;;;27.39;100.00;63736.25;5090425;28;20253;-72
2022/06/07 10:14:36;;;;;;;9.80;3.97;;;;;;;26.95;100.00;63686.31;5093550;28;20550;-76
2022/06/07 10:17:31;;;;;;;7.23;3.90;;;;;;;27.97;100.00;63798.88;5094569;28;20252;-72
2022/06/07 10:20:07;;;;;;;6.47;3.87;;;;;;;28.56;100.00;63863.13;5077963;28;20239;-73
2022/06/07 10:22:49;;;;;;;11.20;3.63;;;;;;;28.87;100.00;63891.66;5096677;28;20258;-73
2022/06/07 10:25:20;;;;;;;7.17;3.87;;;;;;;27.79;100.00;63779.25;5094911;28;20701;-73
2022/06/07 10:28:00;;;;;;;5.17;3.40;;;;;;;27.06;100.00;63700.34;5075376;28;20208;-73
2022/06/07 10:30:34;;;;;;;5.53;3.80;;;;;;;27.32;100.00;63729.19;5092747;28;20701;-74
2022/06/07 10:33:23;;;;;;;6.33;3.83;;;;;;;27.57;100.00;63753.78;5074956;28;20200;-74
2022/06/07 10:35:58;;;;;;;5.20;3.63;;;;;;;27.27;100.00;63721.13;5092719;28;20710;-73
2022/06/07 10:38:42;;;;;;;3.80;3.50;;;;;;;28.69;100.00;63872.06;5075151;28;20652;-75
2022/06/07 10:41:21;;;;;;;4.13;3.70;;;;;;;28.95;100.00;63905.06;5093367;28;20230;-73
2022/06/07 10:43:58;;;;;;;4.73;3.87;;;;;;;28.84;100.00;63888.38;5074781;28;20223;-74
2022/06/07 10:46:28;;;;;;;5.00;3.50;;;;;;;28.62;100.00;63867.03;5092800;28;20573;-74
2022/06/07 10:49:10;;;;;;;5.13;3.67;;;;;;;28.43;100.00;63848.97;5092989;28;20199;-75
2022/06/07 10:54:32;;;;;;;9.37;3.57;;;;;;;29.16;100.00;63928.50;5092940;28;20234;-74
2022/06/07 10:57:07;;;;;;;4.03;3.63;;;;;;;29.59;100.00;63969.03;5092697;28;20213;-73
2022/06/07 10:59:38;;;;;;;7.13;3.70;;;;;;;29.31;100.00;63944.31;5092547;28;20196;-74
2022/06/07 11:02:19;;;;;;;5.90;3.67;;;;;;;29.28;100.00;63935.25;5092709;28;20261;-74
2022/06/07 11:10:32;;;;;;;7.90;3.60;;;;;;;27.92;100.00;63793.41;5092549;28;20210;-74
2022/06/07 11:13:06;;;;;;;8.40;3.73;;;;;;;27.88;100.00;63789.59;5092287;28;20253;-74
2022/06/07 11:15:39;;;;;;;4.97;3.90;;;;;;;28.50;100.00;63856.56;5092216;28;20626;-75
2022/06/07 11:18:12;;;;;;;3.63;3.33;;;;;;;28.40;100.00;63843.06;5092304;28;20200;-75
2022/06/07 11:20:49;;;;;;;5.17;3.67;;;;;;;28.19;100.00;63822.81;5091364;28;20200;-73
2022/06/07 11:23:24;;;;;;;8.03;5.20;;;;;;;27.46;100.00;63744.44;5092217;28;20635;-73
2022/06/07 11:26:01;;;;;;;10.10;4.33;;;;;;;27.55;100.00;63754.22;5092407;28;20282;-74
2022/06/07 11:28:33;;;;;;;5.00;4.20;;;;;;;26.75;100.00;63669.78;5091393;28;20222;-74
2022/06/07 11:31:02;;;;;;;7.40;4.80;;;;;;;26.51;100.00;63641.06;5090990;28;20206;-74
2022/06/07 11:34:07;;;;;;;4.63;3.20;;;;;;;26.48;100.00;63643.03;5091225;28;20199;-74
2022/06/07 11:36:37;;;;;;;9.13;3.63;;;;;;;26.42;100.00;63631.28;5073424;28;20662;-76
2022/06/07 11:39:22;;;;;;;6.53;3.63;;;;;;;27.10;100.00;63705.25;5091199;28;20226;-73
2022/06/07 11:41:53;;;;;;;4.33;3.17;;;;;;;27.42;100.00;63739.53;5091083;28;20224;-73
2022/06/07 11:44:55;;;;;;;5.07;3.57;;;;;;;27.17;100.00;63712.84;5090745;28;20270;-74
2022/06/07 11:47:26;;;;;;;8.83;3.77;;;;;;;27.27;100.00;63723.72;5090729;28;20286;-74
2022/06/07 11:50:00;;;;;;;5.53;3.30;;;;;;;27.55;100.00;63753.66;5091245;28;20203;-73
2022/06/07 11:52:29;;;;;;;12.90;3.40;;;;;;;27.62;100.00;63761.31;5090847;28;20211;-74
2022/06/07 11:55:06;;;;;;;9.47;3.43;;;;;;;28.31;100.00;63835.88;5090772;28;20252;-74
2022/06/07 11:57:36;;;;;;;3.40;3.10;;;;;;;28.79;100.00;63882.94;5090730;28;20631;-74
2022/06/07 12:00:43;;;;;;;8.13;3.20;;;;;;;28.30;100.00;63829.56;5090630;28;20737;-73
2022/06/07 12:03:35;;;;;;;3.60;3.30;;;;;;;27.42;100.00;63740.09;5090433;28;20650;-74
2022/06/07 12:06:25;;;;;;;5.73;2.70;;;;;;;27.65;100.00;63764.03;5090256;28;20215;-74